Weather observations for the past three days for
Hobbs / Lea County
Imperial (Metric)
Date Time (mdt) Wind (mph) Vis. (mi.) Weather Sky Cond. Temperature (ºF) Relative Humidity Wind Chill (°F) Heat Index (°F) Pressure Precipitation (in)
Air Dwpt 6 hour altimeter (in) sea level (mb) 1 hr 3 hr 6 hr
Max. Min.
30 22:15 SE 8 10.00 Fair CLR 82.4 51.8 35% 81 30.04 0.0
30 21:55 SE 9 10.00 Fair CLR 84.2 51.8 33% 82 30.03 0.0
30 21:35 SE 10 10.00 Fair CLR 84.2 51.8 33% 82 30.03 0.0
30 21:15 SE 13 10.00 Fair CLR 86 51.8 31% 84 30.02 0.0
30 20:55 SE 10 10.00 Fair CLR 86 50 29% 84 30.01 0.0
30 20:35 SE 9 10.00 Fair CLR 87.8 48.2 25% 85 30 0.0
30 20:15 SE 9 10.00 Fair CLR 87.8 48.2 25% 85 29.99 0.0
30 19:35 SE 10 10.00 Fair CLR 91.4 48.2 23% 88 29.98 0.0
30 19:15 SE 12 10.00 Mostly Cloudy BKN100 93.2 48.2 21% 90 29.98 0.0
30 18:35 SE 8 G 15 10.00 Partly Cloudy SCT100 95 48.2 20% 92 29.97 0.0
30 18:15 S 9 10.00 A Few Clouds FEW100 95 48.2 20% 92 29.97 0.0
30 17:50 E 9 G 20 10.00 Fair CLR 96.8 46.4 18% 93 29.97 0.0
30 16:50 SE 9 10.00 Fair CLR 96.8 46.4 18% 93 29.97 0.0
30 15:50 E 12 G 21 10.00 Fair CLR 98.6 44.6 16% 95 29.98 0.0
30 14:50 SE 5 10.00 Fair CLR 96.8 46.4 18% 93 30.01 0.0
30 13:50 E 6 G 16 10.00 Fair CLR 96.8 46.4 18% 93 30.04 0.0
30 12:50 E 10 10.00 Fair CLR 95 48.2 20% 92 30.06 0.0
30 11:50 SE 8 10.00 Fair CLR 91.4 50 24% 88 30.08 0.0
30 10:50 S 8 10.00 Fair CLR 89.6 55.4 31% 88 30.11 0.0
30 09:50 S 9 10.00 Fair CLR 84.2 59 43% 84 30.11 0.0
30 08:50 S 16 10.00 Fair CLR 80.6 59 48% 81 30.11 0.0
30 07:50 S 12 10.00 Fair CLR 77 59 54% 79 30.11 0.0
30 06:50 S 8 10.00 Fair CLR 71.6 57.2 61% 30.09 0.0
30 05:50 S 8 G 15 10.00 Fair CLR 71.6 57.2 61% 30.08 0.0
30 05:35 S 10 G 16 10.00 Fair CLR 73.4 57.2 57% 30.08 0.0
30 05:15 S 9 10.00 Fair CLR 73.4 57.2 57% 30.08 0.0
30 04:35 S 9 10.00 Fair CLR 73.4 57.2 57% 30.08 0.0
30 04:15 S 10 10.00 Fair CLR 73.4 57.2 57% 30.08 0.0
30 03:35 SW 8 10.00 Fair CLR 73.4 57.2 57% 30.08 0.0
30 03:15 S 9 10.00 Fair CLR 75.2 57.2 54% 78 30.08 0.0
30 02:55 S 9 10.00 Fair CLR 75.2 55.4 50% 78 30.07 0.0
30 02:35 S 8 10.00 A Few Clouds FEW050 75.2 55.4 50% 78 30.08 0.0
30 02:15 S 9 10.00 Fair CLR 75.2 55.4 50% 78 30.08 0.0
30 01:55 S 9 10.00 Fair CLR 77 55.4 47% 79 30.08 0.0
30 00:55 S 10 10.00 Fair CLR 78.8 53.6 42% 79 30.09 0.0
30 00:35 S 13 10.00 Fair CLR 78.8 53.6 42% 79 30.08 0.0
29 23:55 S 8 10.00 Fair CLR 78.8 51.8 39% 79 30.09 0.0
29 22:55 S 10 10.00 Fair CLR 82.4 50 32% 81 30.09 0.0
29 22:35 S 10 10.00 Fair CLR 82.4 50 32% 81 30.08 0.0
29 22:15 S 9 10.00 Fair CLR 82.4 50 32% 81 30.09 0.0
29 20:55 S 10 10.00 Fair CLR 86 50 29% 84 30.06 0.0
29 17:50 SE 14 10.00 Fair CLR 95 46.4 19% 91 30.03 0.0
29 16:50 S 15 10.00 A Few Clouds FEW100 96.8 48.2 19% 93 30.03 0.0
29 15:50 S 13 G 22 10.00 Fair CLR 96.8 48.2 19% 93 30.04 0.0
29 14:50 S 13 G 20 10.00 Fair CLR 96.8 48.2 19% 93 30.07 0.0
29 13:50 S 13 10.00 Fair CLR 95 50 22% 92 30.1 0.0
29 12:50 S 9 G 17 10.00 Fair CLR 95 51.8 23% 92 30.13 0.0
29 11:50 S 14 10.00 Fair CLR 93.2 51.8 24% 90 30.16 0.0
29 10:50 S 10 G 20 10.00 A Few Clouds FEW120 89.6 55.4 31% 88 30.17 0.0
29 09:50 S 14 10.00 A Few Clouds FEW120 86 59 40% 85 30.18 0.0
29 08:50 S 12 G 18 10.00 A Few Clouds FEW120 82.4 59 45% 82 30.18 0.0
29 07:50 S 12 10.00 A Few Clouds FEW120 78.8 59 51% 80 30.17 0.0
29 06:50 S 5 10.00 Partly Cloudy SCT120 69.8 57.2 64% 30.16 0.0
29 05:50 S 7 10.00 Partly Cloudy SCT110 71.6 57.2 61% 30.15 0.0
29 05:35 S 6 10.00 Mostly Cloudy BKN110 71.6 57.2 61% 30.15 0.0
29 05:15 SW 6 10.00 Mostly Cloudy BKN110 71.6 57.2 61% 30.15 0.0
29 04:55 S 7 10.00 A Few Clouds FEW110 73.4 57.2 57% 30.15 0.0
29 04:35 S 7 10.00 Fair CLR 73.4 57.2 57% 30.16 0.0
29 04:15 S 6 10.00 Fair CLR 73.4 57.2 57% 30.16 0.0
29 03:55 SW 7 10.00 Fair CLR 75.2 57.2 54% 78 30.15 0.0
29 03:35 S 10 10.00 Fair CLR 75.2 57.2 54% 78 30.15 0.0
29 03:15 S 12 10.00 Fair CLR 75.2 55.4 50% 78 30.15 0.0
29 02:55 S 9 10.00 Fair CLR 75.2 55.4 50% 78 30.15 0.0
29 02:35 S 10 G 16 10.00 Fair CLR 77 55.4 47% 79 30.15 0.0
29 02:15 S 12 10.00 Fair CLR 77 55.4 47% 79 30.15 0.0
29 01:55 S 13 10.00 Fair CLR 78.8 55.4 45% 79 30.16 0.0
29 01:35 S 12 G 18 10.00 Fair CLR 78.8 53.6 42% 79 30.16 0.0
29 01:15 S 13 10.00 Fair CLR 78.8 53.6 42% 79 30.16 0.0
29 00:55 S 13 10.00 Fair CLR 78.8 51.8 39% 79 30.17 0.0
29 00:35 S 7 10.00 Fair CLR 77 51.8 42% 78 30.17 0.0
29 00:15 SE 8 10.00 Fair CLR 78.8 51.8 39% 79 30.17 0.0
28 23:55 SE 9 10.00 Fair CLR 78.8 50 37% 79 30.16 0.0
28 23:35 SE 7 10.00 Fair CLR 77 51.8 42% 78 30.16 0.0
28 23:15 SE 7 10.00 Fair CLR 78.8 51.8 39% 79 30.16 0.0
28 22:55 SE 7 10.00 Fair CLR 77 51.8 42% 78 30.16 0.0
28 22:35 SE 8 10.00 Fair CLR 78.8 50 37% 79 30.16 0.0
28 22:15 SE 8 10.00 Fair CLR 78.8 50 37% 79 30.16 0.0
28 20:55 E 8 10.00 Fair CLR 82.4 50 32% 81 30.13 0.0
28 20:35 E 6 10.00 Fair CLR 84.2 50 31% 82 30.12 0.0
28 20:15 SE 7 10.00 Fair CLR 84.2 50 31% 82 30.11 0.0
28 19:55 SE 7 10.00 Fair CLR 86 50 29% 84 30.11 0.0
28 19:35 SE 12 10.00 Fair CLR 87.8 50 27% 85 30.1 0.0
28 19:15 SE 13 G 21 10.00 Fair CLR 89.6 50 26% 87 30.1 0.0
28 18:35 SE 14 G 22 10.00 Fair CLR 91.4 50 24% 88 30.09 0.0
28 18:15 E 17 10.00 Fair CLR 93.2 51.8 24% 90 30.09 0.0
28 17:50 SE 13 G 20 10.00 A Few Clouds FEW090 93.2 50 23% 90 30.09 0.0
28 16:50 E 10 G 17 10.00 Partly Cloudy SCT090 95 50 22% 92 30.09 0.0
28 15:50 E 13 G 20 10.00 Partly Cloudy SCT090 96.8 50 20% 94 30.11 0.0
28 14:50 E 7 10.00 Partly Cloudy SCT080 95 53.6 25% 93 30.14 0.0
28 13:50 E 7 G 16 10.00 Partly Cloudy SCT080 93.2 53.6 26% 91 30.17 0.0
28 12:50 S 10 10.00 A Few Clouds FEW080 91.4 55.4 30% 90 30.19 0.0
28 11:50 S 10 10.00 A Few Clouds FEW070 89.6 55.4 31% 88 30.23 0.0
28 10:50 S 9 G 16 10.00 Fair CLR 87.8 57.2 35% 87 30.24 0.0
28 09:50 S 5 10.00 Fair CLR 82.4 57.2 42% 82 30.25 0.0
28 08:50 S 7 10.00 Fair CLR 78.8 59 51% 80 30.25 0.0
28 07:50 E 5 10.00 Fair CLR 75.2 60.8 61% 77 30.24 0.0
28 06:50 NE 5 10.00 Fair CLR 69.8 60.8 73% 30.23 0.0
28 05:50 Calm 10.00 Fair CLR 68 60.8 78% 30.21 0.0
28 05:35 E 3 10.00 A Few Clouds FEW050 68 60.8 78% 30.2 0.0
28 05:15 SE 5 10.00 Partly Cloudy FEW039 FEW045 SCT055 68 60.8 78% 30.2 0.0
28 04:55 Calm 10.00 Mostly Cloudy FEW030 SCT037 BKN043 68 60.8 78% 30.2 0.0
28 04:35 Calm 10.00 Overcast SCT031 BKN037 OVC050 69.8 60.8 73% 30.19 0.0
28 04:15 SE 5 10.00 Overcast SCT030 OVC037 69.8 60.8 73% 30.19 0.0
28 03:55 SE 5 10.00 Mostly Cloudy FEW028 BKN037 BKN050 69.8 60.8 73% 30.19 0.0
28 03:35 E 5 10.00 Mostly Cloudy SCT029 SCT038 BKN050 69.8 60.8 73% 30.19 0.0
28 03:15 E 6 10.00 Mostly Cloudy FEW039 BKN050 BKN055 71.6 60.8 69% 30.19 0.0
28 02:55 E 6 10.00 Mostly Cloudy SCT041 BKN055 71.6 60.8 69% 30.2 0.0
28 02:35 E 8 10.00 Overcast SCT043 OVC055 71.6 60.8 69% 30.19 0.0
28 02:15 E 8 10.00 Mostly Cloudy FEW041 BKN055 73.4 60.8 65% 30.19 0.0
28 01:55 E 8 10.00 Mostly Cloudy SCT050 BKN055 73.4 60.8 65% 30.19 0.0
28 01:35 E 7 10.00 Mostly Cloudy BKN050 73.4 60.8 65% 30.19 0.0
28 01:15 E 8 10.00 Mostly Cloudy BKN050 73.4 60.8 65% 30.19 0.0
28 00:55 E 8 10.00 Mostly Cloudy BKN050 75.2 60.8 61% 77 30.18 0.0
28 00:35 E 7 10.00 Fair CLR 75.2 60.8 61% 77 30.18 0.0
28 00:15 E 8 10.00 Fair CLR 75.2 59 57% 78 30.18 0.0
27 23:55 E 9 10.00 Fair CLR 75.2 59 57% 78 30.17 0.0
27 23:35 E 8 10.00 Fair CLR 75.2 59 57% 78 30.17 0.0
27 23:15 E 7 10.00 A Few Clouds FEW046 75.2 59 57% 78 30.16 0.0
27 22:55 E 8 10.00 A Few Clouds FEW046 77 59 54% 79 30.17 0.0
27 22:35 E 6 10.00 Fair CLR 77 59 54% 79 30.17 0.0
Date Time (mdt) Wind (mph) Vis. (mi.) Weather Sky Cond. Air Dwpt Max. Min. Relative Humidity Wind Chill (°F) Heat Index (°F) altimeter (in) sea level (mb) 1 hr 3 hr 6 hr
6 hour
Temperature (ºF) Pressure Precipitation (in)